Time;durP1;ratioP1;P1;durP2;ratioP2;P2;SDS_P1;SDS_P2;PMS_P1;PMS_P2;Temp;Humidity;BMP_temperature;BMP_pressure;BME280_temperature;BME280_humidity;BME280_pressure;Samples;Min_cycle;Max_cycle;Signal;HPM_P1;HPM_P2
2023/08/02 00:00:22;;;;;;;19.58;6.57;;;;;;;;;;4973216;28;20117;-85
2023/08/02 00:02:54;;;;;;;17.83;6.75;;;;;;;;;;4955136;28;20046;-83
2023/08/02 00:05:28;;;;;;;17.50;6.93;;;;;;;;;;4972126;28;20062;-84
2023/08/02 00:07:58;;;;;;;17.30;7.18;;;;;;;;;;4983331;28;20039;-83
2023/08/02 00:10:28;;;;;;;14.10;5.95;;;;;;;;;;4970541;28;20043;-82
2023/08/02 00:12:59;;;;;;;15.20;7.10;;;;;;;;;;4955010;28;20038;-84
2023/08/02 00:15:33;;;;;;;15.38;6.35;;;;;;;;;;4973818;28;20050;-81
2023/08/02 00:18:04;;;;;;;16.60;6.10;;;;;;;;;;4972910;28;20418;-81
2023/08/02 00:20:38;;;;;;;14.55;6.35;;;;;;;;;;4968533;28;20062;-81
2023/08/02 00:23:11;;;;;;;13.43;6.32;;;;;;;;;;4938060;29;20047;-81
2023/08/02 00:25:41;;;;;;;15.95;6.10;;;;;;;;;;4967335;28;20045;-81
2023/08/02 00:28:13;;;;;;;17.65;6.97;;;;;;;;;;4968522;28;20050;-81
2023/08/02 00:30:48;;;;;;;14.38;6.03;;;;;;;;;;4956215;28;20046;-82
2023/08/02 00:33:21;;;;;;;16.83;6.10;;;;;;;;;;4956561;28;20047;-83
2023/08/02 00:35:55;;;;;;;17.13;7.43;;;;;;;;;;4938018;29;20050;-84
2023/08/02 00:38:25;;;;;;;15.13;7.00;;;;;;;;;;4959874;28;20386;-83
2023/08/02 00:41:02;;;;;;;11.95;6.45;;;;;;;;;;4954613;28;20058;-84
2023/08/02 00:43:41;;;;;;;12.18;6.15;;;;;;;;;;4940303;28;20055;-83
2023/08/02 00:46:20;;;;;;;13.13;5.68;;;;;;;;;;4955860;28;20062;-83
2023/08/02 00:48:51;;;;;;;17.40;5.95;;;;;;;;;;4956979;28;20050;-82
2023/08/02 00:51:21;;;;;;;14.02;6.07;;;;;;;;;;4973791;28;20042;-84
2023/08/02 00:54:00;;;;;;;13.85;6.50;;;;;;;;;;4956126;28;20509;-82
2023/08/02 00:56:32;;;;;;;16.35;6.18;;;;;;;;;;4955928;28;20047;-82
2023/08/02 00:59:04;;;;;;;17.77;6.35;;;;;;;;;;4973514;28;20043;-83
2023/08/02 01:01:34;;;;;;;16.38;6.30;;;;;;;;;;4956191;28;20513;-83
2023/08/02 01:04:05;;;;;;;16.10;6.55;;;;;;;;;;4956226;28;20486;-82
2023/08/02 01:06:51;;;;;;;20.80;6.65;;;;;;;;;;4957327;28;20059;-84
2023/08/02 01:09:29;;;;;;;14.32;6.93;;;;;;;;;;4956116;28;20070;-82
2023/08/02 01:12:09;;;;;;;15.02;6.28;;;;;;;;;;4969233;28;20046;-82
2023/08/02 01:14:47;;;;;;;12.82;5.90;;;;;;;;;;4955043;28;20047;-82
2023/08/02 01:17:25;;;;;;;14.77;6.15;;;;;;;;;;4969741;28;20516;-83
2023/08/02 01:20:06;;;;;;;13.93;6.28;;;;;;;;;;4972741;28;20035;-82
2023/08/02 01:22:40;;;;;;;17.83;7.43;;;;;;;;;;4970505;28;20051;-83
2023/08/02 01:25:12;;;;;;;15.30;6.85;;;;;;;;;;4952711;28;20047;-83
2023/08/02 01:27:49;;;;;;;19.73;7.25;;;;;;;;;;4972947;28;20050;-85
2023/08/02 01:30:25;;;;;;;15.43;6.63;;;;;;;;;;4956104;28;20038;-82
2023/08/02 01:32:56;;;;;;;14.43;6.68;;;;;;;;;;4950439;28;20049;-83
2023/08/02 01:35:28;;;;;;;20.92;6.90;;;;;;;;;;4967609;28;20043;-83
2023/08/02 01:38:00;;;;;;;12.73;6.32;;;;;;;;;;4954419;28;20042;-83
2023/08/02 01:40:32;;;;;;;16.98;6.50;;;;;;;;;;4968145;28;20486;-84
2023/08/02 01:43:03;;;;;;;19.48;7.65;;;;;;;;;;4954390;28;20398;-84
2023/08/02 01:45:35;;;;;;;13.43;6.15;;;;;;;;;;4972549;28;20047;-83
2023/08/02 01:48:08;;;;;;;16.67;6.07;;;;;;;;;;4972374;28;20047;-83
2023/08/02 01:50:39;;;;;;;14.70;6.55;;;;;;;;;;4972943;28;20043;-84
2023/08/02 01:53:10;;;;;;;;;;;;;;;;;;4972505;28;20043;-83
2023/08/02 01:55:43;;;;;;;16.02;6.82;;;;;;;;;;4938242;28;20017;-83
2023/08/02 01:58:18;;;;;;;16.40;6.38;;;;;;;;;;4953976;28;20047;-83
2023/08/02 02:00:49;;;;;;;17.25;6.70;;;;;;;;;;4968108;28;20061;-83
2023/08/02 02:03:19;;;;;;;17.75;7.43;;;;;;;;;;4953775;28;20058;-83
2023/08/02 02:05:54;;;;;;;19.02;6.97;;;;;;;;;;4966963;28;20055;-83
2023/08/02 02:08:26;;;;;;;16.67;7.40;;;;;;;;;;4971941;28;20493;-83
2023/08/02 02:10:56;;;;;;;17.90;6.20;;;;;;;;;;4969429;28;20039;-83
2023/08/02 02:13:31;;;;;;;20.58;6.85;;;;;;;;;;4970147;28;20065;-83
2023/08/02 02:16:02;;;;;;;12.38;6.15;;;;;;;;;;4954922;28;20046;-82
2023/08/02 02:18:33;;;;;;;16.50;8.10;;;;;;;;;;4953404;28;20046;-83
2023/08/02 02:21:04;;;;;;;12.85;6.88;;;;;;;;;;4954100;28;20058;-83
2023/08/02 02:23:36;;;;;;;15.23;7.45;;;;;;;;;;4966977;28;20046;-83
2023/08/02 02:26:09;;;;;;;16.55;7.38;;;;;;;;;;4969857;28;20046;-83
2023/08/02 02:28:40;;;;;;;20.52;7.07;;;;;;;;;;4954303;28;20054;-82
2023/08/02 02:31:11;;;;;;;16.25;7.07;;;;;;;;;;4967845;28;20049;-83
2023/08/02 02:33:41;;;;;;;18.02;7.53;;;;;;;;;;4953777;28;20042;-83
2023/08/02 02:36:12;;;;;;;16.33;6.95;;;;;;;;;;4967347;28;20051;-82
2023/08/02 02:38:43;;;;;;;17.25;7.22;;;;;;;;;;4967330;28;20044;-82
2023/08/02 02:41:15;;;;;;;21.10;7.80;;;;;;;;;;4951748;28;20054;-82
2023/08/02 02:43:45;;;;;;;13.73;6.65;;;;;;;;;;4971418;28;20070;-83
2023/08/02 02:46:20;;;;;;;23.20;7.78;;;;;;;;;;4966642;28;20438;-82
2023/08/02 02:48:50;;;;;;;16.27;7.20;;;;;;;;;;4971533;28;20043;-82
2023/08/02 02:51:23;;;;;;;15.10;6.75;;;;;;;;;;4951792;28;20413;-83
2023/08/02 02:53:55;;;;;;;12.07;6.82;;;;;;;;;;4971392;28;20046;-82
2023/08/02 02:56:25;;;;;;;12.07;6.47;;;;;;;;;;4971577;28;20039;-82
2023/08/02 02:58:57;;;;;;;17.52;7.55;;;;;;;;;;4954248;28;20119;-83
2023/08/02 03:01:31;;;;;;;15.32;7.60;;;;;;;;;;4971652;28;20051;-83
2023/08/02 03:04:06;;;;;;;14.82;7.40;;;;;;;;;;4945706;28;20054;-82
2023/08/02 03:06:36;;;;;;;15.73;7.75;;;;;;;;;;4971890;28;20425;-82
2023/08/02 03:09:08;;;;;;;18.90;7.88;;;;;;;;;;4959726;28;20067;-84
2023/08/02 03:11:40;;;;;;;20.13;7.25;;;;;;;;;;4965036;28;20058;-83
2023/08/02 03:14:10;;;;;;;14.57;7.32;;;;;;;;;;4972591;28;20516;-83
2023/08/02 03:16:43;;;;;;;15.75;7.78;;;;;;;;;;4972906;28;20047;-83
2023/08/02 03:19:16;;;;;;;17.42;8.02;;;;;;;;;;4973313;28;20371;-82
2023/08/02 03:21:49;;;;;;;21.92;9.00;;;;;;;;;;4973207;28;20481;-83
2023/08/02 03:24:20;;;;;;;15.55;7.53;;;;;;;;;;4972971;28;20057;-82
2023/08/02 03:26:50;;;;;;;17.02;7.25;;;;;;;;;;4973006;28;20051;-82
2023/08/02 03:29:21;;;;;;;18.33;7.47;;;;;;;;;;4956658;28;20050;-82
2023/08/02 03:31:55;;;;;;;14.75;6.93;;;;;;;;;;4973061;28;20058;-83
2023/08/02 03:34:27;;;;;;;13.52;7.43;;;;;;;;;;4973490;28;20058;-83
2023/08/02 03:37:00;;;;;;;14.45;7.50;;;;;;;;;;4976655;28;20054;-83
2023/08/02 03:39:32;;;;;;;16.90;7.80;;;;;;;;;;4960374;28;20066;-84
2023/08/02 03:42:04;;;;;;;14.38;7.45;;;;;;;;;;4959160;28;20057;-83
2023/08/02 03:44:34;;;;;;;17.48;7.53;;;;;;;;;;4976918;28;20058;-82
2023/08/02 03:47:05;;;;;;;15.55;7.00;;;;;;;;;;4959245;28;20050;-82
2023/08/02 03:49:38;;;;;;;19.52;8.07;;;;;;;;;;4976569;28;20042;-82
2023/08/02 03:52:11;;;;;;;14.45;7.10;;;;;;;;;;4977153;28;20051;-83
2023/08/02 03:54:42;;;;;;;16.88;7.63;;;;;;;;;;4976111;28;20382;-82
2023/08/02 03:57:13;;;;;;;14.50;7.43;;;;;;;;;;4977073;28;20050;-83
2023/08/02 03:59:46;;;;;;;16.05;7.70;;;;;;;;;;4976759;28;20070;-82
2023/08/02 04:02:16;;;;;;;16.73;7.57;;;;;;;;;;4976810;28;20059;-83
2023/08/02 04:04:47;;;;;;;19.52;7.72;;;;;;;;;;4976479;28;20493;-83
2023/08/02 04:07:17;;;;;;;17.30;6.93;;;;;;;;;;4959428;28;20046;-83
2023/08/02 04:09:53;;;;;;;22.33;8.18;;;;;;;;;;4976641;28;20051;-83
2023/08/02 04:12:27;;;;;;;17.33;7.20;;;;;;;;;;4960301;28;20050;-83
2023/08/02 04:14:59;;;;;;;19.50;7.72;;;;;;;;;;4974348;28;20055;-83
2023/08/02 04:17:31;;;;;;;17.02;7.20;;;;;;;;;;4976799;28;20050;-83
2023/08/02 04:20:08;;;;;;;13.63;6.78;;;;;;;;;;4976685;28;20367;-83
2023/08/02 04:22:40;;;;;;;14.88;7.55;;;;;;;;;;4976876;28;20058;-83
2023/08/02 04:25:10;;;;;;;14.20;6.80;;;;;;;;;;4959248;28;20054;-82
2023/08/02 04:27:43;;;;;;;21.15;7.15;;;;;;;;;;4974046;28;20043;-83
2023/08/02 04:30:14;;;;;;;12.70;6.88;;;;;;;;;;4976035;28;20054;-82
2023/08/02 04:32:47;;;;;;;13.77;6.65;;;;;;;;;;4976766;28;20055;-83
2023/08/02 04:35:17;;;;;;;19.30;6.93;;;;;;;;;;4976393;28;20171;-83
2023/08/02 04:37:47;;;;;;;14.65;7.15;;;;;;;;;;4974704;28;20059;-83
2023/08/02 04:40:18;;;;;;;13.32;7.15;;;;;;;;;;4976188;28;20047;-82
2023/08/02 04:42:53;;;;;;;14.25;7.28;;;;;;;;;;4975825;28;20409;-82
2023/08/02 04:45:24;;;;;;;15.57;6.53;;;;;;;;;;4975668;28;20046;-83
2023/08/02 04:47:54;;;;;;;17.33;7.32;;;;;;;;;;4957093;28;20062;-82
2023/08/02 04:50:27;;;;;;;14.27;7.38;;;;;;;;;;4975537;28;20374;-82
2023/08/02 04:52:58;;;;;;;16.05;7.85;;;;;;;;;;4976482;28;20065;-83
2023/08/02 04:55:29;;;;;;;19.13;7.70;;;;;;;;;;4974731;28;20054;-83
2023/08/02 04:58:02;;;;;;;;;;;;;;;;;;4976182;28;20047;-83
2023/08/02 05:00:33;;;;;;;14.98;6.45;;;;;;;;;;4959567;28;19929;-83
2023/08/02 05:03:06;;;;;;;19.38;6.82;;;;;;;;;;4958624;28;20047;-83
2023/08/02 05:05:36;;;;;;;12.35;6.32;;;;;;;;;;4974788;28;20055;-83
2023/08/02 05:08:06;;;;;;;15.23;7.72;;;;;;;;;;4975843;28;20409;-83
2023/08/02 05:10:38;;;;;;;12.30;6.03;;;;;;;;;;4975743;28;20043;-82
2023/08/02 05:13:12;;;;;;;12.93;6.60;;;;;;;;;;4975305;28;20394;-82
2023/08/02 05:15:43;;;;;;;14.32;6.40;;;;;;;;;;4957980;28;20497;-83
2023/08/02 05:18:17;;;;;;;13.73;6.50;;;;;;;;;;4975744;28;20047;-83
2023/08/02 05:20:53;;;;;;;11.52;5.85;;;;;;;;;;4958898;28;20050;-82
2023/08/02 05:23:24;;;;;;;14.23;6.53;;;;;;;;;;4958827;28;20039;-82
2023/08/02 05:25:55;;;;;;;16.35;6.75;;;;;;;;;;4957439;28;20055;-82
2023/08/02 05:28:26;;;;;;;16.45;6.70;;;;;;;;;;4974946;28;20058;-82
2023/08/02 05:30:57;;;;;;;14.65;7.35;;;;;;;;;;4958150;28;20053;-82
2023/08/02 05:33:28;;;;;;;17.67;6.90;;;;;;;;;;4973482;28;20486;-82
2023/08/02 05:36:01;;;;;;;11.25;6.05;;;;;;;;;;4957159;28;20054;-82
2023/08/02 05:38:36;;;;;;;13.60;6.90;;;;;;;;;;4975047;28;20500;-82
2023/08/02 05:41:10;;;;;;;12.40;6.63;;;;;;;;;;4975024;28;20039;-83
2023/08/02 05:43:44;;;;;;;13.40;6.28;;;;;;;;;;4973195;28;20386;-83
2023/08/02 05:46:15;;;;;;;13.50;6.88;;;;;;;;;;4974434;28;20498;-82
2023/08/02 05:48:45;;;;;;;12.70;5.80;;;;;;;;;;4973890;28;20047;-83
2023/08/02 05:51:17;;;;;;;15.82;6.20;;;;;;;;;;4975167;28;20043;-83
2023/08/02 05:53:50;;;;;;;14.60;7.18;;;;;;;;;;4974356;28;20058;-82
2023/08/02 05:56:21;;;;;;;14.38;6.07;;;;;;;;;;4975165;28;20047;-81
2023/08/02 05:58:53;;;;;;;12.85;6.22;;;;;;;;;;4975036;28;20066;-82
2023/08/02 06:01:24;;;;;;;12.85;5.95;;;;;;;;;;4974511;28;20066;-82
2023/08/02 06:03:55;;;;;;;12.40;5.90;;;;;;;;;;4974393;28;20125;-83
2023/08/02 06:06:25;;;;;;;11.70;6.13;;;;;;;;;;4974749;28;20055;-82
2023/08/02 06:08:58;;;;;;;13.18;6.40;;;;;;;;;;4975244;28;20058;-83
2023/08/02 06:11:29;;;;;;;17.88;6.90;;;;;;;;;;4972801;28;20058;-81
2023/08/02 06:14:03;;;;;;;14.73;6.45;;;;;;;;;;4957987;28;20047;-82
2023/08/02 06:16:33;;;;;;;17.23;7.30;;;;;;;;;;4974389;28;20051;-82
2023/08/02 06:19:03;;;;;;;15.15;6.97;;;;;;;;;;4974607;28;20046;-83
2023/08/02 06:21:35;;;;;;;13.48;7.10;;;;;;;;;;4956412;28;20062;-82
2023/08/02 06:24:05;;;;;;;13.90;6.90;;;;;;;;;;4974339;28;20112;-83
2023/08/02 06:26:35;;;;;;;12.80;5.75;;;;;;;;;;4974532;28;20046;-83
2023/08/02 06:29:08;;;;;;;11.18;5.78;;;;;;;;;;4974319;28;20042;-82
2023/08/02 06:31:40;;;;;;;13.73;6.10;;;;;;;;;;4956629;28;20055;-82
2023/08/02 06:34:11;;;;;;;16.77;6.75;;;;;;;;;;4956442;28;20051;-81
2023/08/02 06:36:44;;;;;;;14.77;6.72;;;;;;;;;;4974441;28;20373;-82
2023/08/02 06:39:15;;;;;;;14.00;6.45;;;;;;;;;;4974640;28;20043;-82
2023/08/02 06:41:46;;;;;;;14.10;6.57;;;;;;;;;;4956542;28;20477;-82
2023/08/02 06:44:16;;;;;;;15.23;7.25;;;;;;;;;;4972735;28;20053;-82
2023/08/02 06:46:47;;;;;;;14.88;6.72;;;;;;;;;;4974048;28;20386;-82
2023/08/02 06:49:17;;;;;;;13.80;6.35;;;;;;;;;;4956328;28;20050;-82
2023/08/02 06:51:47;;;;;;;13.02;6.30;;;;;;;;;;4973913;28;20051;-82
2023/08/02 06:54:19;;;;;;;15.15;6.47;;;;;;;;;;4972731;28;20401;-82
2023/08/02 06:56:53;;;;;;;18.05;7.80;;;;;;;;;;4973644;28;20046;-82
2023/08/02 06:59:23;;;;;;;;;;;;;;;;;;4973310;28;20495;-82
2023/08/02 07:01:56;;;;;;;11.10;5.45;;;;;;;;;;4956922;28;19922;-81
2023/08/02 07:04:26;;;;;;;11.27;5.93;;;;;;;;;;4972006;28;20502;-81
2023/08/02 07:06:58;;;;;;;14.82;6.10;;;;;;;;;;4973985;28;20054;-82
2023/08/02 07:09:29;;;;;;;13.10;6.85;;;;;;;;;;4955827;28;20058;-83
2023/08/02 07:12:00;;;;;;;11.50;6.00;;;;;;;;;;4976538;28;20058;-82
2023/08/02 07:14:32;;;;;;;12.13;6.45;;;;;;;;;;4977393;28;20375;-82
2023/08/02 07:17:03;;;;;;;13.52;7.00;;;;;;;;;;4977634;28;20450;-82
2023/08/02 07:19:33;;;;;;;15.20;6.30;;;;;;;;;;4976018;28;20038;-82
2023/08/02 07:22:06;;;;;;;17.02;5.95;;;;;;;;;;4977616;28;20070;-81
2023/08/02 07:24:37;;;;;;;14.35;6.60;;;;;;;;;;4960202;28;20076;-82
2023/08/02 07:27:10;;;;;;;16.85;6.82;;;;;;;;;;4961168;28;20055;-82
2023/08/02 07:29:40;;;;;;;12.70;6.45;;;;;;;;;;4977095;28;20485;-83
2023/08/02 07:32:11;;;;;;;14.05;6.85;;;;;;;;;;4977689;28;20501;-82
2023/08/02 07:34:43;;;;;;;13.65;7.00;;;;;;;;;;4960178;28;20043;-82
2023/08/02 07:37:14;;;;;;;12.90;7.05;;;;;;;;;;4975184;28;20442;-82
2023/08/02 07:39:49;;;;;;;12.85;6.85;;;;;;;;;;4958892;28;20054;-83
2023/08/02 07:42:19;;;;;;;12.73;6.55;;;;;;;;;;4976380;28;20413;-83
2023/08/02 07:45:07;;;;;;;12.70;7.20;;;;;;;;;;4976484;28;20119;-81
2023/08/02 07:47:41;;;;;;;;;;;;;;;;;;4977478;28;20070;-81
2023/08/02 07:50:11;;;;;;;13.30;5.80;;;;;;;;;;4959261;28;19922;-82
2023/08/02 07:52:42;;;;;;;13.18;6.30;;;;;;;;;;4976817;28;20406;-82
2023/08/02 07:55:15;;;;;;;12.27;5.40;;;;;;;;;;4959861;28;20046;-81
2023/08/02 07:57:50;;;;;;;12.80;5.63;;;;;;;;;;4959229;28;20055;-82
2023/08/02 08:00:20;;;;;;;11.30;5.72;;;;;;;;;;4976679;28;20051;-83
2023/08/02 08:02:52;;;;;;;10.57;6.35;;;;;;;;;;4976783;28;20059;-81
2023/08/02 08:05:25;;;;;;;12.05;5.50;;;;;;;;;;4958970;28;20509;-82
2023/08/02 08:08:02;;;;;;;12.07;5.90;;;;;;;;;;4976778;28;20046;-82
2023/08/02 08:10:31;;;;;;;12.52;5.80;;;;;;;;;;4976385;28;20046;-83
2023/08/02 08:13:05;;;;;;;12.85;6.20;;;;;;;;;;4974891;28;20062;-82
2023/08/02 08:15:37;;;;;;;12.20;6.13;;;;;;;;;;4976607;28;20058;-82
2023/08/02 08:18:08;;;;;;;15.07;6.05;;;;;;;;;;4958282;28;20516;-83
2023/08/02 08:20:40;;;;;;;12.43;6.32;;;;;;;;;;4976630;28;20055;-83
2023/08/02 08:23:10;;;;;;;12.25;5.90;;;;;;;;;;4959572;28;20476;-82
2023/08/02 08:25:41;;;;;;;9.98;6.03;;;;;;;;;;4959185;28;20104;-83
2023/08/02 08:28:12;;;;;;;13.55;5.75;;;;;;;;;;4958317;28;20051;-82
2023/08/02 08:30:44;;;;;;;12.38;6.05;;;;;;;;;;4976104;28;20054;-82
2023/08/02 08:33:14;;;;;;;11.40;6.03;;;;;;;;;;4976023;28;20054;-82
2023/08/02 08:35:45;;;;;;;16.50;5.70;;;;;;;;;;4974418;28;20393;-83
2023/08/02 08:38:16;;;;;;;12.20;5.93;;;;;;;;;;4976141;28;20038;-82
2023/08/02 08:40:52;;;;;;;;;;;;;;;;;;4976296;28;20043;-82
2023/08/02 08:43:27;;;;;;;15.18;5.10;;;;;;;;;;4990656;28;19929;-81
2023/08/02 08:45:58;;;;;;;10.32;5.30;;;;;;;;;;4973776;28;20050;-84
2023/08/02 08:48:30;;;;;;;18.30;5.65;;;;;;;;;;4975853;28;20490;-82
2023/08/02 08:51:04;;;;;;;9.77;5.40;;;;;;;;;;4975920;28;20501;-82
2023/08/02 08:53:41;;;;;;;17.13;5.80;;;;;;;;;;4975727;28;20046;-83
2023/08/02 08:56:12;;;;;;;10.45;5.07;;;;;;;;;;4957553;28;20061;-81
2023/08/02 08:58:45;;;;;;;11.70;6.15;;;;;;;;;;4976149;28;20055;-83
2023/08/02 09:01:17;;;;;;;13.45;5.75;;;;;;;;;;4958532;28;20049;-82
2023/08/02 09:03:48;;;;;;;13.27;6.13;;;;;;;;;;4975744;28;20042;-82
2023/08/02 09:06:19;;;;;;;11.32;5.60;;;;;;;;;;4975502;28;20508;-83
2023/08/02 09:08:49;;;;;;;11.50;5.85;;;;;;;;;;4975596;28;20046;-82
2023/08/02 09:11:23;;;;;;;12.90;5.45;;;;;;;;;;4957265;28;20078;-81
2023/08/02 09:14:14;;;;;;;10.48;5.38;;;;;;;;;;4957035;28;20047;-82
2023/08/02 09:17:02;;;;;;;10.60;5.18;;;;;;;;;;4975492;28;20066;-82
2023/08/02 09:19:37;;;;;;;12.27;5.78;;;;;;;;;;4957381;28;20062;-82
2023/08/02 09:22:13;;;;;;;11.70;6.03;;;;;;;;;;4975293;28;20043;-83
2023/08/02 09:24:45;;;;;;;15.20;5.97;;;;;;;;;;4975907;28;20386;-82
2023/08/02 09:27:18;;;;;;;15.52;5.82;;;;;;;;;;4973912;28;20039;-83
2023/08/02 09:29:54;;;;;;;12.93;5.80;;;;;;;;;;4958762;28;20046;-82
2023/08/02 09:32:29;;;;;;;14.02;6.18;;;;;;;;;;4973173;28;20042;-82
2023/08/02 09:35:00;;;;;;;16.30;5.88;;;;;;;;;;4956152;28;20131;-82
2023/08/02 09:37:33;;;;;;;13.80;6.43;;;;;;;;;;4975015;28;20042;-82
2023/08/02 09:40:09;;;;;;;11.07;6.00;;;;;;;;;;4975084;28;20046;-83
2023/08/02 09:42:41;;;;;;;13.57;5.90;;;;;;;;;;4958244;28;20489;-82
2023/08/02 09:45:12;;;;;;;10.38;5.35;;;;;;;;;;4957021;28;20478;-82
2023/08/02 09:47:51;;;;;;;11.60;5.47;;;;;;;;;;4956732;28;20059;-81
2023/08/02 09:50:23;;;;;;;13.82;5.63;;;;;;;;;;4974512;28;20047;-83
2023/08/02 09:52:55;;;;;;;13.73;5.18;;;;;;;;;;4974642;28;20038;-84
2023/08/02 09:55:27;;;;;;;12.18;5.40;;;;;;;;;;4974439;28;20043;-82
2023/08/02 09:58:01;;;;;;;10.63;5.45;;;;;;;;;;4975119;28;20042;-82
2023/08/02 10:00:34;;;;;;;12.40;5.32;;;;;;;;;;4974459;28;20050;-81
2023/08/02 10:03:07;;;;;;;10.57;5.15;;;;;;;;;;4957091;28;20055;-82
2023/08/02 10:05:56;;;;;;;12.02;4.80;;;;;;;;;;4956960;28;20051;-81
2023/08/02 10:08:29;;;;;;;;;;;;;;;;;;4956873;28;20048;-83
2023/08/02 10:11:05;;;;;;;12.63;4.78;;;;;;;;;;4951640;28;19937;-82
2023/08/02 10:13:42;;;;;;;9.77;4.97;;;;;;;;;;4951843;29;20040;-81
2023/08/02 10:16:14;;;;;;;10.93;6.07;;;;;;;;;;4943754;28;20058;-82
2023/08/02 10:18:49;;;;;;;10.45;5.38;;;;;;;;;;4966247;28;20039;-81
2023/08/02 10:21:21;;;;;;;;;;;;;;;;;;4968205;28;20486;-81
2023/08/02 10:23:55;;;;;;;10.20;4.90;;;;;;;;;;4955298;28;19922;-82
2023/08/02 10:26:26;;;;;;;12.27;5.22;;;;;;;;;;4973340;28;20038;-82
2023/08/02 10:28:59;;;;;;;;;;;;;;;;;;4970680;28;20051;-82
2023/08/02 10:31:32;;;;;;;9.90;4.95;;;;;;;;;;4951692;28;19945;-82
2023/08/02 10:34:37;;;;;;;10.90;5.50;;;;;;;;;;4957274;28;20470;-82
2023/08/02 10:37:08;;;;;;;12.07;5.32;;;;;;;;;;4974453;28;20067;-81
2023/08/02 10:39:47;;;;;;;12.02;5.88;;;;;;;;;;4974672;28;20051;-83
2023/08/02 10:42:29;;;;;;;12.32;6.13;;;;;;;;;;4974578;28;20398;-83
2023/08/02 10:45:13;;;;;;;18.73;7.13;;;;;;;;;;4957607;28;20047;-83
2023/08/02 10:47:45;;;;;;;15.35;6.80;;;;;;;;;;4959916;28;20054;-83
2023/08/02 10:50:43;;;;;;;19.88;8.07;;;;;;;;;;4976985;28;20042;-84
2023/08/02 10:53:15;;;;;;;20.75;10.07;;;;;;;;;;4973451;28;20059;-84
2023/08/02 10:56:10;;;;;;;19.75;10.73;;;;;;;;;;4952732;28;20050;-82
2023/08/02 10:58:53;;;;;;;18.33;9.68;;;;;;;;;;4950443;28;20050;-84
2023/08/02 11:01:25;;;;;;;16.75;8.43;;;;;;;;;;4954521;28;20055;-82
2023/08/02 11:04:00;;;;;;;20.02;8.63;;;;;;;;;;4967454;28;20537;-83
2023/08/02 11:06:33;;;;;;;23.10;8.75;;;;;;;;;;4956696;29;20055;-83
2023/08/02 11:09:05;;;;;;;16.17;8.55;;;;;;;;;;4970764;28;20540;-83
2023/08/02 11:11:37;;;;;;;22.20;9.68;;;;;;;;;;4955346;29;20062;-83
2023/08/02 11:14:10;;;;;;;20.90;8.90;;;;;;;;;;4956231;29;20525;-84
2023/08/02 11:16:43;;;;;;;19.02;8.82;;;;;;;;;;4956615;29;20054;-79
2023/08/02 11:19:24;;;;;;;23.83;8.88;;;;;;;;;;4955469;29;20056;-79
2023/08/02 11:21:59;;;;;;;20.13;9.82;;;;;;;;;;4956893;28;20051;-80
2023/08/02 11:24:42;;;;;;;22.25;8.77;;;;;;;;;;4959676;28;20035;-79
2023/08/02 11:27:24;;;;;;;25.55;9.20;;;;;;;;;;4975836;28;20046;-80
2023/08/02 11:30:20;;;;;;;21.92;8.88;;;;;;;;;;4961660;28;20051;-79
2023/08/02 11:33:00;;;;;;;22.77;9.85;;;;;;;;;;4961174;28;20374;-80
2023/08/02 11:35:33;;;;;;;27.10;10.43;;;;;;;;;;4977723;28;20039;-78
2023/08/02 11:38:11;;;;;;;19.45;9.23;;;;;;;;;;4972988;28;20039;-81
2023/08/02 11:40:41;;;;;;;20.83;10.13;;;;;;;;;;4960850;28;20043;-82
2023/08/02 11:43:14;;;;;;;23.30;10.18;;;;;;;;;;4955742;29;20055;-80
2023/08/02 11:45:52;;;;;;;21.95;10.10;;;;;;;;;;4956585;29;20051;-80
2023/08/02 11:48:26;;;;;;;20.55;10.20;;;;;;;;;;4955208;29;20386;-80
2023/08/02 11:51:12;;;;;;;19.40;10.15;;;;;;;;;;4969413;28;20042;-82
2023/08/02 11:53:54;;;;;;;22.35;11.13;;;;;;;;;;4976039;28;20053;-80
2023/08/02 11:56:26;;;;;;;19.13;9.32;;;;;;;;;;4975505;28;20046;-82
2023/08/02 11:58:58;;;;;;;20.95;10.30;;;;;;;;;;4964209;28;20051;-82
2023/08/02 12:01:28;;;;;;;22.15;10.35;;;;;;;;;;4937954;29;20055;-82
2023/08/02 12:04:04;;;;;;;22.75;10.43;;;;;;;;;;4954153;29;20039;-83
2023/08/02 12:06:51;;;;;;;21.52;11.20;;;;;;;;;;4956251;29;20374;-80
2023/08/02 12:09:43;;;;;;;22.25;11.93;;;;;;;;;;4955664;29;20054;-80
2023/08/02 12:12:12;;;;;;;;;;;;;;;;;;4956567;29;20059;-82
2023/08/02 12:14:44;;;;;;;25.60;13.68;;;;;;;;;;4956296;29;19927;-80
2023/08/02 12:17:21;;;;;;;22.73;13.13;;;;;;;;;;4956546;29;20409;-81
2023/08/02 12:19:53;;;;;;;23.85;12.88;;;;;;;;;;4956460;29;20039;-80
2023/08/02 12:22:23;;;;;;;25.50;12.77;;;;;;;;;;4956357;29;20493;-79
2023/08/02 12:25:06;;;;;;;22.75;13.27;;;;;;;;;;4956367;29;20090;-80
2023/08/02 12:27:37;;;;;;;23.23;12.35;;;;;;;;;;4953639;29;20062;-81
2023/08/02 12:30:15;;;;;;;;;;;;;;;;;;4956330;29;20397;-80
2023/08/02 12:32:47;;;;;;;22.63;13.50;;;;;;;;;;4955818;29;19923;-79
2023/08/02 12:35:18;;;;;;;24.83;14.10;;;;;;;;;;4952894;28;20442;-80
2023/08/02 12:37:50;;;;;;;24.83;14.07;;;;;;;;;;4955056;29;20490;-80
2023/08/02 12:40:25;;;;;;;22.35;11.95;;;;;;;;;;4953588;29;20059;-81
2023/08/02 12:42:55;;;;;;;27.15;15.27;;;;;;;;;;4955656;28;20044;-81
2023/08/02 12:45:32;;;;;;;12.85;5.85;;;;;;;;;;4953304;29;20382;-80
2023/08/02 12:48:02;;;;;;;13.95;7.07;;;;;;;;;;4955235;29;20051;-82
2023/08/02 12:50:41;;;;;;;7.88;4.60;;;;;;;;;;4954888;29;20039;-80
2023/08/02 12:53:12;;;;;;;10.25;5.15;;;;;;;;;;4955035;29;20054;-80
2023/08/02 12:55:45;;;;;;;7.00;3.90;;;;;;;;;;4954804;29;20051;-80
2023/08/02 12:58:19;;;;;;;8.85;4.82;;;;;;;;;;4954695;29;20062;-79
2023/08/02 13:00:52;;;;;;;8.45;4.53;;;;;;;;;;4968757;28;20043;-78
2023/08/02 13:03:23;;;;;;;8.55;4.00;;;;;;;;;;4877733;28;2328034;-80
2023/08/02 13:05:54;;;;;;;7.32;3.45;;;;;;;;;;4975079;28;20493;-79
2023/08/02 13:08:24;;;;;;;8.77;4.03;;;;;;;;;;4973717;28;20504;-79
2023/08/02 13:11:00;;;;;;;6.72;3.33;;;;;;;;;;4974944;28;20394;-79
2023/08/02 13:13:31;;;;;;;7.40;3.90;;;;;;;;;;4958285;28;20490;-80
2023/08/02 13:16:01;;;;;;;7.50;3.55;;;;;;;;;;4972511;28;20154;-81
2023/08/02 13:18:31;;;;;;;6.93;3.67;;;;;;;;;;4974746;28;20051;-79
2023/08/02 13:21:05;;;;;;;6.85;3.17;;;;;;;;;;4974270;28;20050;-79
2023/08/02 13:23:38;;;;;;;5.47;3.15;;;;;;;;;;4974630;28;20043;-79
2023/08/02 13:26:08;;;;;;;7.28;3.42;;;;;;;;;;4974521;28;20043;-80
2023/08/02 13:28:38;;;;;;;8.10;3.75;;;;;;;;;;4974527;28;20047;-79
2023/08/02 13:31:11;;;;;;;32.70;16.58;;;;;;;;;;4967004;28;20036;-80
2023/08/02 13:33:46;;;;;;;29.02;11.45;;;;;;;;;;4954448;29;20047;-80
2023/08/02 13:36:16;;;;;;;38.47;14.70;;;;;;;;;;4954070;29;20043;-79
2023/08/02 13:38:48;;;;;;;16.83;8.50;;;;;;;;;;4954752;29;20147;-82
2023/08/02 13:41:18;;;;;;;6.90;3.28;;;;;;;;;;4954060;29;20478;-78
2023/08/02 13:43:51;;;;;;;8.10;4.05;;;;;;;;;;4953948;29;20047;-82
2023/08/02 13:46:22;;;;;;;7.75;4.15;;;;;;;;;;4937383;29;20047;-80
2023/08/02 13:48:52;;;;;;;30.40;14.65;;;;;;;;;;4954741;29;20405;-80
2023/08/02 13:51:22;;;;;;;7.05;4.10;;;;;;;;;;4954007;29;20433;-80
2023/08/02 13:53:56;;;;;;;10.80;5.03;;;;;;;;;;4954168;28;20514;-79
2023/08/02 13:56:29;;;;;;;6.07;3.42;;;;;;;;;;4953986;29;20050;-79
2023/08/02 13:59:00;;;;;;;8.35;3.47;;;;;;;;;;4954376;29;20047;-80
2023/08/02 14:01:33;;;;;;;5.35;3.20;;;;;;;;;;4953965;29;20055;-81
2023/08/02 14:04:04;;;;;;;7.35;3.65;;;;;;;;;;4936443;29;20406;-79
2023/08/02 14:06:36;;;;;;;6.30;3.25;;;;;;;;;;4953957;29;20050;-80
2023/08/02 14:09:09;;;;;;;9.13;3.38;;;;;;;;;;4953595;29;20051;-80
2023/08/02 14:11:39;;;;;;;9.32;4.63;;;;;;;;;;4936831;29;20047;-80
2023/08/02 14:14:09;;;;;;;9.00;4.03;;;;;;;;;;4935149;29;20058;-80
2023/08/02 14:16:39;;;;;;;5.85;3.08;;;;;;;;;;4961733;28;20478;-81
2023/08/02 14:19:13;;;;;;;6.35;2.72;;;;;;;;;;4973168;28;20413;-78
2023/08/02 14:21:46;;;;;;;4.75;2.50;;;;;;;;;;4974422;28;20041;-81
2023/08/02 14:24:16;;;;;;;6.03;3.13;;;;;;;;;;4956563;28;20059;-80
2023/08/02 14:26:46;;;;;;;6.30;3.10;;;;;;;;;;4974019;28;20442;-82
2023/08/02 14:29:16;;;;;;;8.70;2.92;;;;;;;;;;4973298;28;20049;-81
2023/08/02 14:31:47;;;;;;;5.75;2.88;;;;;;;;;;4973301;28;20066;-80
2023/08/02 14:34:23;;;;;;;11.32;3.72;;;;;;;;;;4974148;28;20054;-81
2023/08/02 14:36:53;;;;;;;8.63;3.00;;;;;;;;;;4973547;28;20497;-81
2023/08/02 14:39:24;;;;;;;6.15;2.60;;;;;;;;;;4973639;28;20047;-81
2023/08/02 14:41:55;;;;;;;8.45;2.92;;;;;;;;;;4973520;28;20054;-81
2023/08/02 14:44:25;;;;;;;13.02;4.40;;;;;;;;;;4956163;28;20058;-81
2023/08/02 14:46:56;;;;;;;7.22;2.90;;;;;;;;;;4969588;28;20050;-80
2023/08/02 14:49:27;;;;;;;5.57;2.97;;;;;;;;;;4953441;29;20498;-82
2023/08/02 14:51:57;;;;;;;6.47;3.15;;;;;;;;;;4953362;29;20502;-79
2023/08/02 14:54:29;;;;;;;5.70;3.00;;;;;;;;;;4953111;28;20414;-81
2023/08/02 14:57:06;;;;;;;5.28;2.88;;;;;;;;;;4937130;29;20066;-80
2023/08/02 14:59:37;;;;;;;6.47;2.75;;;;;;;;;;4953395;29;20050;-82
2023/08/02 15:02:09;;;;;;;4.47;2.63;;;;;;;;;;4953478;29;20055;-80
2023/08/02 15:04:39;;;;;;;6.22;2.70;;;;;;;;;;4952167;29;20051;-80
2023/08/02 15:07:12;;;;;;;5.75;2.60;;;;;;;;;;4952926;29;20043;-80